sensor_id;sensor_type;location;lat;lon;timestamp;P1;durP1;ratioP1;P2;durP2;ratioP2
51614;SDS011;37695;52.960;6.188;2023-09-19T00:01:41;6.85;;;2.50;;
51614;SDS011;37695;52.960;6.188;2023-09-19T00:04:10;7.00;;;2.70;;
51614;SDS011;37695;52.960;6.188;2023-09-19T00:06:38;6.43;;;2.45;;
51614;SDS011;37695;52.960;6.188;2023-09-19T00:09:04;6.20;;;2.47;;
51614;SDS011;37695;52.960;6.188;2023-09-19T00:11:30;9.40;;;2.72;;
51614;SDS011;37695;52.960;6.188;2023-09-19T00:13:56;11.93;;;2.92;;
51614;SDS011;37695;52.960;6.188;2023-09-19T00:16:24;8.77;;;3.67;;
51614;SDS011;37695;52.960;6.188;2023-09-19T00:18:50;10.32;;;3.22;;
51614;SDS011;37695;52.960;6.188;2023-09-19T00:21:17;13.48;;;3.13;;
51614;SDS011;37695;52.960;6.188;2023-09-19T00:23:44;10.93;;;2.88;;
51614;SDS011;37695;52.960;6.188;2023-09-19T00:26:10;12.18;;;3.10;;
51614;SDS011;37695;52.960;6.188;2023-09-19T00:28:35;7.03;;;2.60;;
51614;SDS011;37695;52.960;6.188;2023-09-19T00:31:01;12.35;;;3.15;;
51614;SDS011;37695;52.960;6.188;2023-09-19T00:33:27;13.48;;;3.08;;
51614;SDS011;37695;52.960;6.188;2023-09-19T00:35:55;10.52;;;2.83;;
51614;SDS011;37695;52.960;6.188;2023-09-19T00:38:22;13.02;;;3.83;;
51614;SDS011;37695;52.960;6.188;2023-09-19T00:40:52;10.07;;;2.97;;
51614;SDS011;37695;52.960;6.188;2023-09-19T00:43:19;8.02;;;2.60;;
51614;SDS011;37695;52.960;6.188;2023-09-19T00:45:49;8.32;;;2.97;;
51614;SDS011;37695;52.960;6.188;2023-09-19T00:48:16;10.40;;;2.72;;
51614;SDS011;37695;52.960;6.188;2023-09-19T00:50:42;11.65;;;2.80;;
51614;SDS011;37695;52.960;6.188;2023-09-19T00:53:09;9.52;;;2.85;;
51614;SDS011;37695;52.960;6.188;2023-09-19T00:55:36;14.07;;;3.00;;
51614;SDS011;37695;52.960;6.188;2023-09-19T00:58:09;7.75;;;2.83;;
51614;SDS011;37695;52.960;6.188;2023-09-19T01:00:35;8.85;;;2.72;;
51614;SDS011;37695;52.960;6.188;2023-09-19T01:03:02;9.50;;;2.42;;
51614;SDS011;37695;52.960;6.188;2023-09-19T01:05:28;11.05;;;3.25;;
51614;SDS011;37695;52.960;6.188;2023-09-19T01:07:54;11.45;;;3.35;;
51614;SDS011;37695;52.960;6.188;2023-09-19T01:10:20;11.43;;;2.50;;
51614;SDS011;37695;52.960;6.188;2023-09-19T01:15:47;7.13;;;2.60;;
51614;SDS011;37695;52.960;6.188;2023-09-19T01:23:48;6.63;;;2.50;;
51614;SDS011;37695;52.960;6.188;2023-09-19T01:29:13;7.85;;;2.55;;
51614;SDS011;37695;52.960;6.188;2023-09-19T01:32:03;6.82;;;2.50;;
51614;SDS011;37695;52.960;6.188;2023-09-19T01:37:29;8.82;;;2.90;;
51614;SDS011;37695;52.960;6.188;2023-09-19T01:40:03;6.35;;;2.20;;
51614;SDS011;37695;52.960;6.188;2023-09-19T01:45:36;11.90;;;2.70;;
51614;SDS011;37695;52.960;6.188;2023-09-19T01:48:32;13.32;;;3.30;;
51614;SDS011;37695;52.960;6.188;2023-09-19T01:51:07;9.35;;;3.35;;
51614;SDS011;37695;52.960;6.188;2023-09-19T01:53:40;10.55;;;2.45;;
51614;SDS011;37695;52.960;6.188;2023-09-19T01:56:16;8.48;;;3.22;;
51614;SDS011;37695;52.960;6.188;2023-09-19T01:58:53;7.43;;;2.60;;
51614;SDS011;37695;52.960;6.188;2023-09-19T02:01:24;8.90;;;2.40;;
51614;SDS011;37695;52.960;6.188;2023-09-19T02:03:51;7.10;;;2.60;;
51614;SDS011;37695;52.960;6.188;2023-09-19T02:06:18;12.32;;;2.78;;
51614;SDS011;37695;52.960;6.188;2023-09-19T02:08:46;5.40;;;2.30;;
51614;SDS011;37695;52.960;6.188;2023-09-19T02:11:12;6.63;;;2.67;;
51614;SDS011;37695;52.960;6.188;2023-09-19T02:13:38;10.23;;;2.85;;
51614;SDS011;37695;52.960;6.188;2023-09-19T02:16:04;8.10;;;2.67;;
51614;SDS011;37695;52.960;6.188;2023-09-19T02:18:32;7.43;;;2.63;;
51614;SDS011;37695;52.960;6.188;2023-09-19T02:21:00;5.72;;;2.40;;
51614;SDS011;37695;52.960;6.188;2023-09-19T02:23:26;6.63;;;2.72;;
51614;SDS011;37695;52.960;6.188;2023-09-19T02:25:55;10.57;;;3.20;;
51614;SDS011;37695;52.960;6.188;2023-09-19T02:28:25;10.23;;;2.25;;
51614;SDS011;37695;52.960;6.188;2023-09-19T02:30:55;10.18;;;2.95;;
51614;SDS011;37695;52.960;6.188;2023-09-19T02:33:21;11.23;;;2.65;;
51614;SDS011;37695;52.960;6.188;2023-09-19T02:35:47;9.93;;;2.70;;
51614;SDS011;37695;52.960;6.188;2023-09-19T02:38:12;8.10;;;2.58;;
51614;SDS011;37695;52.960;6.188;2023-09-19T02:40:39;8.18;;;2.92;;
51614;SDS011;37695;52.960;6.188;2023-09-19T02:43:05;10.73;;;2.95;;
51614;SDS011;37695;52.960;6.188;2023-09-19T02:45:31;11.93;;;2.70;;
51614;SDS011;37695;52.960;6.188;2023-09-19T02:47:57;10.35;;;2.95;;
51614;SDS011;37695;52.960;6.188;2023-09-19T02:50:23;8.38;;;2.85;;
51614;SDS011;37695;52.960;6.188;2023-09-19T02:52:49;6.30;;;2.40;;
51614;SDS011;37695;52.960;6.188;2023-09-19T02:55:15;8.32;;;2.50;;
51614;SDS011;37695;52.960;6.188;2023-09-19T02:57:46;6.95;;;2.67;;
51614;SDS011;37695;52.960;6.188;2023-09-19T03:00:12;11.25;;;2.75;;
51614;SDS011;37695;52.960;6.188;2023-09-19T03:02:38;10.05;;;2.97;;
51614;SDS011;37695;52.960;6.188;2023-09-19T03:05:06;9.82;;;2.80;;
51614;SDS011;37695;52.960;6.188;2023-09-19T03:07:32;6.97;;;2.80;;
51614;SDS011;37695;52.960;6.188;2023-09-19T03:09:58;8.52;;;2.40;;
51614;SDS011;37695;52.960;6.188;2023-09-19T03:12:25;11.27;;;2.65;;
51614;SDS011;37695;52.960;6.188;2023-09-19T03:14:51;8.55;;;2.72;;
51614;SDS011;37695;52.960;6.188;2023-09-19T03:17:16;8.48;;;2.40;;
51614;SDS011;37695;52.960;6.188;2023-09-19T03:19:44;8.98;;;2.97;;
51614;SDS011;37695;52.960;6.188;2023-09-19T03:22:10;6.20;;;2.60;;
51614;SDS011;37695;52.960;6.188;2023-09-19T03:24:35;9.43;;;2.88;;
51614;SDS011;37695;52.960;6.188;2023-09-19T03:27:02;8.82;;;3.03;;
51614;SDS011;37695;52.960;6.188;2023-09-19T03:29:28;7.10;;;2.70;;
51614;SDS011;37695;52.960;6.188;2023-09-19T03:31:53;8.15;;;2.63;;
51614;SDS011;37695;52.960;6.188;2023-09-19T03:34:19;8.18;;;2.60;;
51614;SDS011;37695;52.960;6.188;2023-09-19T03:36:45;7.20;;;2.58;;
51614;SDS011;37695;52.960;6.188;2023-09-19T03:39:11;6.68;;;2.53;;
51614;SDS011;37695;52.960;6.188;2023-09-19T03:41:37;9.60;;;2.72;;
51614;SDS011;37695;52.960;6.188;2023-09-19T03:44:02;10.35;;;2.75;;
51614;SDS011;37695;52.960;6.188;2023-09-19T03:46:28;8.45;;;2.70;;
51614;SDS011;37695;52.960;6.188;2023-09-19T03:48:54;10.60;;;2.83;;
51614;SDS011;37695;52.960;6.188;2023-09-19T03:51:20;7.15;;;2.63;;
51614;SDS011;37695;52.960;6.188;2023-09-19T03:53:45;9.27;;;2.95;;
51614;SDS011;37695;52.960;6.188;2023-09-19T03:56:11;7.90;;;2.63;;
51614;SDS011;37695;52.960;6.188;2023-09-19T03:58:37;6.68;;;2.42;;
51614;SDS011;37695;52.960;6.188;2023-09-19T04:01:04;6.55;;;2.80;;
51614;SDS011;37695;52.960;6.188;2023-09-19T04:03:31;10.73;;;2.95;;
51614;SDS011;37695;52.960;6.188;2023-09-19T04:06:11;13.25;;;2.65;;
51614;SDS011;37695;52.960;6.188;2023-09-19T04:08:40;8.27;;;2.35;;
51614;SDS011;37695;52.960;6.188;2023-09-19T04:11:06;9.32;;;2.83;;
51614;SDS011;37695;52.960;6.188;2023-09-19T04:13:32;9.85;;;2.83;;
51614;SDS011;37695;52.960;6.188;2023-09-19T04:15:58;6.80;;;2.38;;
51614;SDS011;37695;52.960;6.188;2023-09-19T04:18:23;8.75;;;3.13;;
51614;SDS011;37695;52.960;6.188;2023-09-19T04:20:49;9.43;;;2.70;;
51614;SDS011;37695;52.960;6.188;2023-09-19T04:23:15;12.38;;;2.47;;
51614;SDS011;37695;52.960;6.188;2023-09-19T04:25:41;5.63;;;2.47;;
51614;SDS011;37695;52.960;6.188;2023-09-19T04:28:08;6.45;;;2.33;;
51614;SDS011;37695;52.960;6.188;2023-09-19T04:30:36;7.97;;;2.80;;
51614;SDS011;37695;52.960;6.188;2023-09-19T04:33:02;8.85;;;2.92;;
51614;SDS011;37695;52.960;6.188;2023-09-19T04:35:28;8.85;;;2.95;;
51614;SDS011;37695;52.960;6.188;2023-09-19T04:37:56;9.20;;;2.90;;
51614;SDS011;37695;52.960;6.188;2023-09-19T04:40:22;8.57;;;3.00;;
51614;SDS011;37695;52.960;6.188;2023-09-19T04:42:53;7.72;;;2.63;;
51614;SDS011;37695;52.960;6.188;2023-09-19T04:45:22;7.00;;;2.47;;
51614;SDS011;37695;52.960;6.188;2023-09-19T04:47:48;6.10;;;2.50;;
51614;SDS011;37695;52.960;6.188;2023-09-19T04:50:14;11.85;;;3.70;;
51614;SDS011;37695;52.960;6.188;2023-09-19T04:52:40;9.98;;;2.95;;
51614;SDS011;37695;52.960;6.188;2023-09-19T04:55:12;13.77;;;2.88;;
51614;SDS011;37695;52.960;6.188;2023-09-19T04:57:48;8.05;;;2.70;;
51614;SDS011;37695;52.960;6.188;2023-09-19T05:00:19;8.45;;;2.85;;
51614;SDS011;37695;52.960;6.188;2023-09-19T05:02:52;7.60;;;3.10;;
51614;SDS011;37695;52.960;6.188;2023-09-19T05:05:20;8.57;;;2.83;;
51614;SDS011;37695;52.960;6.188;2023-09-19T05:07:47;5.97;;;2.58;;
51614;SDS011;37695;52.960;6.188;2023-09-19T05:10:13;12.23;;;3.08;;
51614;SDS011;37695;52.960;6.188;2023-09-19T05:12:39;11.55;;;3.22;;
51614;SDS011;37695;52.960;6.188;2023-09-19T05:15:06;9.50;;;3.65;;
51614;SDS011;37695;52.960;6.188;2023-09-19T05:17:32;14.68;;;3.30;;
51614;SDS011;37695;52.960;6.188;2023-09-19T05:19:59;14.32;;;3.15;;
51614;SDS011;37695;52.960;6.188;2023-09-19T05:22:31;11.10;;;3.33;;
51614;SDS011;37695;52.960;6.188;2023-09-19T05:24:57;14.48;;;2.85;;
51614;SDS011;37695;52.960;6.188;2023-09-19T05:27:24;7.93;;;2.72;;
51614;SDS011;37695;52.960;6.188;2023-09-19T05:29:50;14.05;;;3.42;;
51614;SDS011;37695;52.960;6.188;2023-09-19T05:32:18;13.63;;;3.72;;
51614;SDS011;37695;52.960;6.188;2023-09-19T05:34:44;8.38;;;3.05;;
51614;SDS011;37695;52.960;6.188;2023-09-19T05:37:10;7.38;;;3.10;;
51614;SDS011;37695;52.960;6.188;2023-09-19T05:39:36;13.93;;;3.03;;
51614;SDS011;37695;52.960;6.188;2023-09-19T05:42:02;9.95;;;3.50;;
51614;SDS011;37695;52.960;6.188;2023-09-19T05:44:28;8.93;;;2.58;;
51614;SDS011;37695;52.960;6.188;2023-09-19T05:46:54;19.75;;;4.50;;
51614;SDS011;37695;52.960;6.188;2023-09-19T05:49:21;13.00;;;3.38;;
51614;SDS011;37695;52.960;6.188;2023-09-19T05:51:47;11.88;;;4.07;;
51614;SDS011;37695;52.960;6.188;2023-09-19T05:54:13;11.32;;;3.25;;
51614;SDS011;37695;52.960;6.188;2023-09-19T05:56:38;10.40;;;3.13;;
51614;SDS011;37695;52.960;6.188;2023-09-19T05:59:04;11.80;;;3.33;;
51614;SDS011;37695;52.960;6.188;2023-09-19T06:01:30;11.88;;;3.55;;
51614;SDS011;37695;52.960;6.188;2023-09-19T06:03:57;10.25;;;3.20;;
51614;SDS011;37695;52.960;6.188;2023-09-19T06:06:25;8.02;;;2.78;;
51614;SDS011;37695;52.960;6.188;2023-09-19T06:08:51;8.98;;;3.60;;
51614;SDS011;37695;52.960;6.188;2023-09-19T06:11:17;13.20;;;3.25;;
51614;SDS011;37695;52.960;6.188;2023-09-19T06:13:45;7.93;;;2.42;;
51614;SDS011;37695;52.960;6.188;2023-09-19T06:16:12;15.85;;;3.25;;
51614;SDS011;37695;52.960;6.188;2023-09-19T06:18:38;9.77;;;3.15;;
51614;SDS011;37695;52.960;6.188;2023-09-19T06:21:04;14.50;;;3.40;;
51614;SDS011;37695;52.960;6.188;2023-09-19T06:23:32;10.93;;;3.17;;
51614;SDS011;37695;52.960;6.188;2023-09-19T06:26:00;13.43;;;3.22;;
51614;SDS011;37695;52.960;6.188;2023-09-19T06:28:25;16.00;;;2.95;;
51614;SDS011;37695;52.960;6.188;2023-09-19T06:30:53;15.65;;;2.85;;
51614;SDS011;37695;52.960;6.188;2023-09-19T06:33:19;11.07;;;3.17;;
51614;SDS011;37695;52.960;6.188;2023-09-19T06:35:46;11.18;;;3.10;;
51614;SDS011;37695;52.960;6.188;2023-09-19T06:38:13;15.30;;;3.63;;
51614;SDS011;37695;52.960;6.188;2023-09-19T06:40:40;11.18;;;3.50;;
51614;SDS011;37695;52.960;6.188;2023-09-19T06:43:12;13.85;;;3.85;;
51614;SDS011;37695;52.960;6.188;2023-09-19T06:45:38;12.18;;;3.22;;
51614;SDS011;37695;52.960;6.188;2023-09-19T06:48:03;10.15;;;3.72;;
51614;SDS011;37695;52.960;6.188;2023-09-19T06:50:30;12.85;;;3.55;;
51614;SDS011;37695;52.960;6.188;2023-09-19T06:52:56;10.18;;;3.17;;
51614;SDS011;37695;52.960;6.188;2023-09-19T06:55:24;12.52;;;3.67;;
51614;SDS011;37695;52.960;6.188;2023-09-19T06:57:52;9.15;;;3.35;;
51614;SDS011;37695;52.960;6.188;2023-09-19T07:00:21;10.68;;;3.72;;
51614;SDS011;37695;52.960;6.188;2023-09-19T07:03:01;11.68;;;3.70;;
51614;SDS011;37695;52.960;6.188;2023-09-19T07:05:30;10.07;;;3.25;;
51614;SDS011;37695;52.960;6.188;2023-09-19T07:07:59;10.18;;;3.10;;
51614;SDS011;37695;52.960;6.188;2023-09-19T07:10:26;10.38;;;3.40;;
51614;SDS011;37695;52.960;6.188;2023-09-19T07:15:22;9.07;;;3.15;;
51614;SDS011;37695;52.960;6.188;2023-09-19T07:17:50;14.02;;;3.63;;
51614;SDS011;37695;52.960;6.188;2023-09-19T07:20:19;12.75;;;3.63;;
51614;SDS011;37695;52.960;6.188;2023-09-19T07:22:45;11.13;;;3.60;;
51614;SDS011;37695;52.960;6.188;2023-09-19T07:25:12;10.50;;;3.15;;
51614;SDS011;37695;52.960;6.188;2023-09-19T07:27:39;10.75;;;2.70;;
51614;SDS011;37695;52.960;6.188;2023-09-19T07:30:06;10.20;;;3.25;;
51614;SDS011;37695;52.960;6.188;2023-09-19T07:32:33;10.60;;;3.03;;
51614;SDS011;37695;52.960;6.188;2023-09-19T07:35:01;12.55;;;3.75;;
51614;SDS011;37695;52.960;6.188;2023-09-19T07:37:31;12.85;;;3.92;;
51614;SDS011;37695;52.960;6.188;2023-09-19T07:40:01;13.07;;;3.17;;
51614;SDS011;37695;52.960;6.188;2023-09-19T07:42:28;12.65;;;3.33;;
51614;SDS011;37695;52.960;6.188;2023-09-19T07:44:53;10.77;;;3.65;;
51614;SDS011;37695;52.960;6.188;2023-09-19T07:47:19;10.95;;;3.50;;
51614;SDS011;37695;52.960;6.188;2023-09-19T07:49:48;11.40;;;3.67;;
51614;SDS011;37695;52.960;6.188;2023-09-19T07:52:14;14.95;;;3.65;;
51614;SDS011;37695;52.960;6.188;2023-09-19T07:54:40;14.00;;;3.13;;
51614;SDS011;37695;52.960;6.188;2023-09-19T07:57:06;11.52;;;3.75;;
51614;SDS011;37695;52.960;6.188;2023-09-19T07:59:32;18.02;;;4.60;;
51614;SDS011;37695;52.960;6.188;2023-09-19T08:01:57;12.68;;;3.72;;
51614;SDS011;37695;52.960;6.188;2023-09-19T08:04:23;7.45;;;3.00;;
51614;SDS011;37695;52.960;6.188;2023-09-19T08:06:51;10.85;;;3.20;;
51614;SDS011;37695;52.960;6.188;2023-09-19T08:09:17;9.73;;;3.45;;
51614;SDS011;37695;52.960;6.188;2023-09-19T08:11:46;14.27;;;3.70;;
51614;SDS011;37695;52.960;6.188;2023-09-19T08:14:12;8.40;;;3.25;;
51614;SDS011;37695;52.960;6.188;2023-09-19T08:16:39;10.95;;;3.35;;
51614;SDS011;37695;52.960;6.188;2023-09-19T08:19:05;11.55;;;3.20;;
51614;SDS011;37695;52.960;6.188;2023-09-19T08:21:30;14.30;;;3.90;;
51614;SDS011;37695;52.960;6.188;2023-09-19T08:23:57;11.95;;;3.78;;
51614;SDS011;37695;52.960;6.188;2023-09-19T08:26:22;13.88;;;3.67;;
51614;SDS011;37695;52.960;6.188;2023-09-19T08:28:49;13.18;;;4.72;;
51614;SDS011;37695;52.960;6.188;2023-09-19T08:31:16;13.43;;;3.53;;
51614;SDS011;37695;52.960;6.188;2023-09-19T08:33:42;11.77;;;3.35;;
51614;SDS011;37695;52.960;6.188;2023-09-19T08:36:08;14.30;;;4.03;;
51614;SDS011;37695;52.960;6.188;2023-09-19T08:38:34;12.90;;;3.83;;
51614;SDS011;37695;52.960;6.188;2023-09-19T08:41:01;13.73;;;3.88;;
51614;SDS011;37695;52.960;6.188;2023-09-19T08:43:31;11.27;;;3.85;;
51614;SDS011;37695;52.960;6.188;2023-09-19T08:46:20;13.40;;;4.10;;
51614;SDS011;37695;52.960;6.188;2023-09-19T08:51:56;20.20;;;4.47;;
51614;SDS011;37695;52.960;6.188;2023-09-19T08:54:35;19.20;;;4.40;;
51614;SDS011;37695;52.960;6.188;2023-09-19T08:57:06;12.10;;;4.32;;
51614;SDS011;37695;52.960;6.188;2023-09-19T08:59:37;16.98;;;4.45;;
51614;SDS011;37695;52.960;6.188;2023-09-19T09:02:08;13.50;;;4.07;;
51614;SDS011;37695;52.960;6.188;2023-09-19T09:04:38;11.43;;;3.75;;
51614;SDS011;37695;52.960;6.188;2023-09-19T09:07:05;17.70;;;4.47;;
51614;SDS011;37695;52.960;6.188;2023-09-19T09:09:38;10.13;;;3.85;;
51614;SDS011;37695;52.960;6.188;2023-09-19T09:12:10;16.73;;;4.70;;
51614;SDS011;37695;52.960;6.188;2023-09-19T09:14:38;14.40;;;3.85;;
51614;SDS011;37695;52.960;6.188;2023-09-19T09:17:12;15.98;;;5.10;;
51614;SDS011;37695;52.960;6.188;2023-09-19T09:19:38;14.27;;;3.95;;
51614;SDS011;37695;52.960;6.188;2023-09-19T09:22:07;13.15;;;4.10;;
51614;SDS011;37695;52.960;6.188;2023-09-19T09:24:33;15.35;;;4.55;;
51614;SDS011;37695;52.960;6.188;2023-09-19T09:27:02;15.65;;;4.22;;
51614;SDS011;37695;52.960;6.188;2023-09-19T09:29:46;12.27;;;4.18;;
51614;SDS011;37695;52.960;6.188;2023-09-19T09:32:25;14.40;;;4.50;;
51614;SDS011;37695;52.960;6.188;2023-09-19T09:34:54;16.63;;;4.60;;
51614;SDS011;37695;52.960;6.188;2023-09-19T09:37:22;14.40;;;4.38;;
51614;SDS011;37695;52.960;6.188;2023-09-19T09:39:53;17.35;;;4.72;;
51614;SDS011;37695;52.960;6.188;2023-09-19T09:42:31;15.27;;;4.18;;
51614;SDS011;37695;52.960;6.188;2023-09-19T09:45:16;15.90;;;4.45;;
51614;SDS011;37695;52.960;6.188;2023-09-19T09:47:58;14.82;;;3.75;;
51614;SDS011;37695;52.960;6.188;2023-09-19T09:56:05;18.25;;;4.75;;
51614;SDS011;37695;52.960;6.188;2023-09-19T09:58:35;15.93;;;4.70;;
51614;SDS011;37695;52.960;6.188;2023-09-19T10:01:02;11.82;;;4.03;;
51614;SDS011;37695;52.960;6.188;2023-09-19T10:03:34;13.43;;;4.40;;
51614;SDS011;37695;52.960;6.188;2023-09-19T10:06:13;16.98;;;4.63;;
51614;SDS011;37695;52.960;6.188;2023-09-19T10:09:02;16.33;;;4.22;;
51614;SDS011;37695;52.960;6.188;2023-09-19T10:11:35;10.98;;;4.47;;
51614;SDS011;37695;52.960;6.188;2023-09-19T10:14:04;11.63;;;4.10;;
51614;SDS011;37695;52.960;6.188;2023-09-19T10:16:35;9.98;;;3.78;;
51614;SDS011;37695;52.960;6.188;2023-09-19T10:19:04;16.92;;;5.30;;
51614;SDS011;37695;52.960;6.188;2023-09-19T10:21:34;17.85;;;4.57;;
51614;SDS011;37695;52.960;6.188;2023-09-19T10:24:01;16.20;;;5.03;;
51614;SDS011;37695;52.960;6.188;2023-09-19T10:26:30;13.85;;;4.30;;
51614;SDS011;37695;52.960;6.188;2023-09-19T10:28:56;16.67;;;5.07;;
51614;SDS011;37695;52.960;6.188;2023-09-19T10:31:24;19.60;;;4.75;;
51614;SDS011;37695;52.960;6.188;2023-09-19T10:33:52;15.23;;;4.97;;
51614;SDS011;37695;52.960;6.188;2023-09-19T10:36:20;18.55;;;4.70;;
51614;SDS011;37695;52.960;6.188;2023-09-19T10:38:51;21.73;;;5.50;;
51614;SDS011;37695;52.960;6.188;2023-09-19T10:41:20;18.98;;;5.07;;
51614;SDS011;37695;52.960;6.188;2023-09-19T10:43:47;18.33;;;4.68;;
51614;SDS011;37695;52.960;6.188;2023-09-19T10:46:15;12.95;;;3.60;;
51614;SDS011;37695;52.960;6.188;2023-09-19T10:48:41;12.48;;;4.20;;
51614;SDS011;37695;52.960;6.188;2023-09-19T10:51:15;10.23;;;4.53;;
51614;SDS011;37695;52.960;6.188;2023-09-19T10:53:49;17.63;;;5.20;;
51614;SDS011;37695;52.960;6.188;2023-09-19T10:56:17;15.55;;;4.65;;
51614;SDS011;37695;52.960;6.188;2023-09-19T10:59:05;19.75;;;4.93;;
51614;SDS011;37695;52.960;6.188;2023-09-19T11:01:45;16.20;;;4.82;;
51614;SDS011;37695;52.960;6.188;2023-09-19T11:07:09;12.00;;;4.10;;
51614;SDS011;37695;52.960;6.188;2023-09-19T11:09:42;15.43;;;4.40;;
51614;SDS011;37695;52.960;6.188;2023-09-19T11:12:11;14.60;;;4.60;;
51614;SDS011;37695;52.960;6.188;2023-09-19T11:14:37;13.38;;;3.95;;
51614;SDS011;37695;52.960;6.188;2023-09-19T11:26:04;15.80;;;4.70;;
51614;SDS011;37695;52.960;6.188;2023-09-19T11:30:47;14.85;;;4.22;;
51614;SDS011;37695;52.960;6.188;2023-09-19T11:33:24;13.23;;;4.15;;
51614;SDS011;37695;52.960;6.188;2023-09-19T11:36:06;16.30;;;4.57;;
51614;SDS011;37695;52.960;6.188;2023-09-19T11:46:12;16.83;;;4.70;;
51614;SDS011;37695;52.960;6.188;2023-09-19T11:48:41;14.15;;;4.13;;
51614;SDS011;37695;52.960;6.188;2023-09-19T11:51:12;14.43;;;4.07;;
51614;SDS011;37695;52.960;6.188;2023-09-19T11:53:52;15.32;;;4.15;;
51614;SDS011;37695;52.960;6.188;2023-09-19T11:56:19;12.38;;;4.05;;
51614;SDS011;37695;52.960;6.188;2023-09-19T11:58:53;13.23;;;4.25;;
51614;SDS011;37695;52.960;6.188;2023-09-19T12:01:43;17.20;;;4.72;;
51614;SDS011;37695;52.960;6.188;2023-09-19T12:04:08;17.40;;;4.45;;
51614;SDS011;37695;52.960;6.188;2023-09-19T12:06:37;18.35;;;4.32;;
51614;SDS011;37695;52.960;6.188;2023-09-19T12:09:12;13.35;;;3.90;;
51614;SDS011;37695;52.960;6.188;2023-09-19T12:11:42;14.57;;;4.13;;
51614;SDS011;37695;52.960;6.188;2023-09-19T12:14:09;9.75;;;3.13;;
51614;SDS011;37695;52.960;6.188;2023-09-19T12:16:35;12.75;;;4.40;;
51614;SDS011;37695;52.960;6.188;2023-09-19T12:19:20;17.45;;;4.25;;
51614;SDS011;37695;52.960;6.188;2023-09-19T12:21:56;16.70;;;4.13;;
51614;SDS011;37695;52.960;6.188;2023-09-19T12:24:34;15.82;;;3.85;;
51614;SDS011;37695;52.960;6.188;2023-09-19T12:27:04;12.98;;;3.35;;
51614;SDS011;37695;52.960;6.188;2023-09-19T12:29:30;14.68;;;3.75;;
51614;SDS011;37695;52.960;6.188;2023-09-19T12:31:59;12.57;;;3.55;;
51614;SDS011;37695;52.960;6.188;2023-09-19T12:34:31;9.80;;;3.00;;
51614;SDS011;37695;52.960;6.188;2023-09-19T12:37:07;9.40;;;3.10;;
51614;SDS011;37695;52.960;6.188;2023-09-19T12:39:44;9.80;;;2.95;;
51614;SDS011;37695;52.960;6.188;2023-09-19T12:42:25;10.98;;;3.13;;
51614;SDS011;37695;52.960;6.188;2023-09-19T12:44:57;13.75;;;3.20;;
51614;SDS011;37695;52.960;6.188;2023-09-19T12:47:26;8.85;;;3.03;;
51614;SDS011;37695;52.960;6.188;2023-09-19T12:50:05;10.85;;;3.70;;
51614;SDS011;37695;52.960;6.188;2023-09-19T12:52:48;8.02;;;3.05;;
51614;SDS011;37695;52.960;6.188;2023-09-19T12:55:24;10.18;;;3.45;;
51614;SDS011;37695;52.960;6.188;2023-09-19T13:00:40;11.45;;;3.20;;
51614;SDS011;37695;52.960;6.188;2023-09-19T13:06:01;14.00;;;3.63;;
51614;SDS011;37695;52.960;6.188;2023-09-19T13:13:34;6.18;;;2.45;;
51614;SDS011;37695;52.960;6.188;2023-09-19T13:16:10;6.85;;;2.47;;
51614;SDS011;37695;52.960;6.188;2023-09-19T13:18:43;9.35;;;2.90;;
51614;SDS011;37695;52.960;6.188;2023-09-19T13:21:13;11.73;;;2.90;;
51614;SDS011;37695;52.960;6.188;2023-09-19T13:23:52;9.55;;;2.60;;
51614;SDS011;37695;52.960;6.188;2023-09-19T13:26:24;8.73;;;2.70;;
51614;SDS011;37695;52.960;6.188;2023-09-19T13:28:50;11.18;;;3.08;;
51614;SDS011;37695;52.960;6.188;2023-09-19T13:31:16;10.07;;;2.63;;
51614;SDS011;37695;52.960;6.188;2023-09-19T13:33:45;5.68;;;2.88;;
51614;SDS011;37695;52.960;6.188;2023-09-19T13:36:12;10.77;;;3.22;;
51614;SDS011;37695;52.960;6.188;2023-09-19T13:38:41;9.68;;;2.97;;
51614;SDS011;37695;52.960;6.188;2023-09-19T13:41:08;7.78;;;2.58;;
51614;SDS011;37695;52.960;6.188;2023-09-19T13:43:35;8.80;;;2.30;;
51614;SDS011;37695;52.960;6.188;2023-09-19T13:46:01;16.20;;;2.85;;
51614;SDS011;37695;52.960;6.188;2023-09-19T13:48:27;6.78;;;2.33;;
51614;SDS011;37695;52.960;6.188;2023-09-19T13:50:54;6.45;;;2.55;;
51614;SDS011;37695;52.960;6.188;2023-09-19T13:53:20;10.85;;;2.72;;
51614;SDS011;37695;52.960;6.188;2023-09-19T13:55:46;7.38;;;2.70;;
51614;SDS011;37695;52.960;6.188;2023-09-19T13:58:13;9.32;;;2.65;;
51614;SDS011;37695;52.960;6.188;2023-09-19T14:00:39;7.32;;;2.75;;
51614;SDS011;37695;52.960;6.188;2023-09-19T14:03:05;7.68;;;2.72;;
51614;SDS011;37695;52.960;6.188;2023-09-19T14:05:30;9.30;;;2.60;;
51614;SDS011;37695;52.960;6.188;2023-09-19T14:07:56;12.20;;;3.17;;
51614;SDS011;37695;52.960;6.188;2023-09-19T14:10:23;8.82;;;3.17;;
51614;SDS011;37695;52.960;6.188;2023-09-19T14:12:49;7.78;;;3.13;;
51614;SDS011;37695;52.960;6.188;2023-09-19T14:15:14;5.90;;;2.65;;
51614;SDS011;37695;52.960;6.188;2023-09-19T14:17:40;13.43;;;3.15;;
51614;SDS011;37695;52.960;6.188;2023-09-19T14:20:10;10.70;;;2.85;;
51614;SDS011;37695;52.960;6.188;2023-09-19T14:22:36;8.23;;;2.85;;
51614;SDS011;37695;52.960;6.188;2023-09-19T14:25:02;8.43;;;2.88;;
51614;SDS011;37695;52.960;6.188;2023-09-19T14:27:29;7.43;;;2.63;;
51614;SDS011;37695;52.960;6.188;2023-09-19T14:29:54;7.78;;;2.88;;
51614;SDS011;37695;52.960;6.188;2023-09-19T14:32:21;9.30;;;2.53;;
51614;SDS011;37695;52.960;6.188;2023-09-19T14:34:47;8.65;;;2.67;;
51614;SDS011;37695;52.960;6.188;2023-09-19T14:37:13;8.02;;;2.70;;
51614;SDS011;37695;52.960;6.188;2023-09-19T14:39:39;8.80;;;2.65;;
51614;SDS011;37695;52.960;6.188;2023-09-19T14:42:06;14.98;;;3.60;;
51614;SDS011;37695;52.960;6.188;2023-09-19T14:44:31;8.52;;;2.58;;
51614;SDS011;37695;52.960;6.188;2023-09-19T14:46:57;12.60;;;2.60;;
51614;SDS011;37695;52.960;6.188;2023-09-19T14:49:23;8.52;;;2.72;;
51614;SDS011;37695;52.960;6.188;2023-09-19T14:51:50;7.47;;;2.80;;
51614;SDS011;37695;52.960;6.188;2023-09-19T14:54:17;7.38;;;2.67;;
51614;SDS011;37695;52.960;6.188;2023-09-19T14:56:43;10.52;;;2.90;;
51614;SDS011;37695;52.960;6.188;2023-09-19T14:59:09;9.90;;;2.83;;
51614;SDS011;37695;52.960;6.188;2023-09-19T15:01:36;6.63;;;2.25;;
51614;SDS011;37695;52.960;6.188;2023-09-19T15:04:02;7.03;;;2.25;;
51614;SDS011;37695;52.960;6.188;2023-09-19T15:06:27;10.98;;;2.88;;
51614;SDS011;37695;52.960;6.188;2023-09-19T15:08:53;8.32;;;2.40;;
51614;SDS011;37695;52.960;6.188;2023-09-19T15:11:19;9.45;;;2.35;;
51614;SDS011;37695;52.960;6.188;2023-09-19T15:13:45;8.23;;;2.92;;
51614;SDS011;37695;52.960;6.188;2023-09-19T15:16:12;9.40;;;2.50;;
51614;SDS011;37695;52.960;6.188;2023-09-19T15:18:43;7.05;;;2.28;;
51614;SDS011;37695;52.960;6.188;2023-09-19T15:21:11;6.75;;;2.55;;
51614;SDS011;37695;52.960;6.188;2023-09-19T15:23:38;5.63;;;2.53;;
51614;SDS011;37695;52.960;6.188;2023-09-19T15:26:04;7.05;;;2.72;;
51614;SDS011;37695;52.960;6.188;2023-09-19T15:28:31;9.50;;;2.60;;
51614;SDS011;37695;52.960;6.188;2023-09-19T15:31:02;8.68;;;3.22;;
51614;SDS011;37695;52.960;6.188;2023-09-19T15:33:35;7.35;;;2.65;;
51614;SDS011;37695;52.960;6.188;2023-09-19T15:38:30;6.75;;;2.92;;
51614;SDS011;37695;52.960;6.188;2023-09-19T15:40:57;10.45;;;3.38;;
51614;SDS011;37695;52.960;6.188;2023-09-19T15:43:23;7.20;;;2.90;;
51614;SDS011;37695;52.960;6.188;2023-09-19T15:45:49;7.82;;;2.63;;
51614;SDS011;37695;52.960;6.188;2023-09-19T15:48:15;9.18;;;2.92;;
51614;SDS011;37695;52.960;6.188;2023-09-19T15:50:41;8.02;;;2.95;;
51614;SDS011;37695;52.960;6.188;2023-09-19T15:53:07;7.22;;;2.95;;